sensor_id;sensor_type;location;lat;lon;timestamp;pressure;altitude;pressure_sealevel;temperature;humidity
45255;BME280;30989;52.078;21.014;2023-04-26T00:01:13;165394.06;;;6.27;100.00
45255;BME280;30989;52.078;21.014;2023-04-26T00:03:39;165391.41;;;6.26;100.00
45255;BME280;30989;52.078;21.014;2023-04-26T00:06:05;165383.41;;;6.23;100.00
45255;BME280;30989;52.078;21.014;2023-04-26T00:08:33;165386.06;;;6.24;100.00
45255;BME280;30989;52.078;21.014;2023-04-26T00:10:58;165380.72;;;6.22;100.00
45255;BME280;30989;52.078;21.014;2023-04-26T00:13:24;165388.72;;;6.25;100.00
45255;BME280;30989;52.078;21.014;2023-04-26T00:15:50;165388.72;;;6.25;100.00
45255;BME280;30989;52.078;21.014;2023-04-26T00:18:15;165382.06;;;6.22;100.00
45255;BME280;30989;52.078;21.014;2023-04-26T00:20:42;165384.72;;;6.23;100.00
45255;BME280;30989;52.078;21.014;2023-04-26T00:23:07;165375.38;;;6.20;100.00
45255;BME280;30989;52.078;21.014;2023-04-26T00:25:36;165375.38;;;6.20;100.00
45255;BME280;30989;52.078;21.014;2023-04-26T00:28:02;165375.38;;;6.20;100.00
45255;BME280;30989;52.078;21.014;2023-04-26T00:30:27;165363.34;;;6.15;100.00
45255;BME280;30989;52.078;21.014;2023-04-26T00:32:53;165359.34;;;6.13;100.00
45255;BME280;30989;52.078;21.014;2023-04-26T00:35:19;165360.69;;;6.14;100.00
45255;BME280;30989;52.078;21.014;2023-04-26T00:37:44;165366.03;;;6.16;100.00
45255;BME280;30989;52.078;21.014;2023-04-26T00:40:11;165362.03;;;6.14;100.00
45255;BME280;30989;52.078;21.014;2023-04-26T00:42:37;165359.34;;;6.13;100.00
45255;BME280;30989;52.078;21.014;2023-04-26T00:45:04;165354.00;;;6.11;100.00
45255;BME280;30989;52.078;21.014;2023-04-26T00:47:30;165342.00;;;6.07;100.00
45255;BME280;30989;52.078;21.014;2023-04-26T00:49:57;165351.34;;;6.10;100.00
45255;BME280;30989;52.078;21.014;2023-04-26T00:52:23;165346.00;;;6.08;100.00
45255;BME280;30989;52.078;21.014;2023-04-26T00:54:50;165351.34;;;6.10;100.00
45255;BME280;30989;52.078;21.014;2023-04-26T00:57:16;165342.00;;;6.07;100.00
45255;BME280;30989;52.078;21.014;2023-04-26T00:59:41;165346.00;;;6.08;100.00
45255;BME280;30989;52.078;21.014;2023-04-26T01:02:07;165340.66;;;6.06;100.00
45255;BME280;30989;52.078;21.014;2023-04-26T01:04:33;165343.31;;;6.07;100.00
45255;BME280;30989;52.078;21.014;2023-04-26T01:07:02;165338.00;;;6.05;100.00
45255;BME280;30989;52.078;21.014;2023-04-26T01:09:30;165340.66;;;6.06;100.00
45255;BME280;30989;52.078;21.014;2023-04-26T01:11:58;165328.63;;;6.02;100.00
45255;BME280;30989;52.078;21.014;2023-04-26T01:14:25;165329.97;;;6.02;100.00
45255;BME280;30989;52.078;21.014;2023-04-26T01:16:51;165320.63;;;5.99;100.00
45255;BME280;30989;52.078;21.014;2023-04-26T01:19:17;165304.59;;;5.93;100.00
45255;BME280;30989;52.078;21.014;2023-04-26T01:21:44;165320.63;;;5.99;100.00
45255;BME280;30989;52.078;21.014;2023-04-26T01:24:11;165316.63;;;5.97;100.00
45255;BME280;30989;52.078;21.014;2023-04-26T01:26:38;165304.59;;;5.93;100.00
45255;BME280;30989;52.078;21.014;2023-04-26T01:29:20;165297.94;;;5.90;100.00
45255;BME280;30989;52.078;21.014;2023-04-26T01:31:47;165287.19;;;5.86;100.00
45255;BME280;30989;52.078;21.014;2023-04-26T01:34:13;165287.19;;;5.86;100.00
45255;BME280;30989;52.078;21.014;2023-04-26T01:36:39;165263.16;;;5.77;100.00
45255;BME280;30989;52.078;21.014;2023-04-26T01:39:05;165255.16;;;5.74;100.00
45255;BME280;30989;52.078;21.014;2023-04-26T01:41:30;165260.50;;;5.76;100.00
45255;BME280;30989;52.078;21.014;2023-04-26T01:43:59;165243.13;;;5.69;100.00
45255;BME280;30989;52.078;21.014;2023-04-26T01:46:25;165233.78;;;5.66;100.00
45255;BME280;30989;52.078;21.014;2023-04-26T01:48:51;165209.75;;;5.57;100.00
45255;BME280;30989;52.078;21.014;2023-04-26T01:51:16;165220.44;;;5.61;100.00
45255;BME280;30989;52.078;21.014;2023-04-26T01:53:42;165204.41;;;5.55;100.00
45255;BME280;30989;52.078;21.014;2023-04-26T01:56:07;165201.75;;;5.54;100.00
45255;BME280;30989;52.078;21.014;2023-04-26T01:58:32;165191.06;;;5.49;100.00
45255;BME280;30989;52.078;21.014;2023-04-26T02:01:06;165185.72;;;5.47;100.00
45255;BME280;30989;52.078;21.014;2023-04-26T02:03:32;165187.06;;;5.48;100.00
45255;BME280;30989;52.078;21.014;2023-04-26T02:05:57;165180.41;;;5.45;100.00
45255;BME280;30989;52.078;21.014;2023-04-26T02:08:23;165168.38;;;5.41;100.00
45255;BME280;30989;52.078;21.014;2023-04-26T02:10:48;165164.38;;;5.39;100.00
45255;BME280;30989;52.078;21.014;2023-04-26T02:13:14;165167.03;;;5.40;100.00
45255;BME280;30989;52.078;21.014;2023-04-26T02:15:40;165163.03;;;5.39;100.00
45255;BME280;30989;52.078;21.014;2023-04-26T02:18:05;165165.72;;;5.40;100.00
45255;BME280;30989;52.078;21.014;2023-04-26T02:20:31;165175.06;;;5.43;100.00
45255;BME280;30989;52.078;21.014;2023-04-26T02:22:57;165179.06;;;5.45;100.00
45255;BME280;30989;52.078;21.014;2023-04-26T02:25:23;165179.06;;;5.45;100.00
45255;BME280;30989;52.078;21.014;2023-04-26T02:27:49;165179.06;;;5.45;100.00
45255;BME280;30989;52.078;21.014;2023-04-26T02:30:14;165180.41;;;5.45;100.00
45255;BME280;30989;52.078;21.014;2023-04-26T02:32:40;165165.72;;;5.40;100.00
45255;BME280;30989;52.078;21.014;2023-04-26T02:35:06;165188.41;;;5.48;100.00
45255;BME280;30989;52.078;21.014;2023-04-26T02:37:32;165185.72;;;5.47;100.00
45255;BME280;30989;52.078;21.014;2023-04-26T02:39:58;165199.09;;;5.53;100.00
45255;BME280;30989;52.078;21.014;2023-04-26T02:42:24;165205.75;;;5.55;100.00
45255;BME280;30989;52.078;21.014;2023-04-26T02:44:49;165208.44;;;5.56;100.00
45255;BME280;30989;52.078;21.014;2023-04-26T02:47:15;165207.09;;;5.56;100.00
45255;BME280;30989;52.078;21.014;2023-04-26T02:49:41;165208.44;;;5.56;100.00
45255;BME280;30989;52.078;21.014;2023-04-26T02:52:06;165200.41;;;5.53;100.00
45255;BME280;30989;52.078;21.014;2023-04-26T02:54:32;165196.41;;;5.52;100.00
45255;BME280;30989;52.078;21.014;2023-04-26T02:56:57;165193.75;;;5.50;100.00
45255;BME280;30989;52.078;21.014;2023-04-26T02:59:23;165191.06;;;5.49;100.00
45255;BME280;30989;52.078;21.014;2023-04-26T03:01:49;165191.06;;;5.49;100.00
45255;BME280;30989;52.078;21.014;2023-04-26T03:04:14;165175.06;;;5.43;100.00
45255;BME280;30989;52.078;21.014;2023-04-26T03:06:42;165185.72;;;5.47;100.00
45255;BME280;30989;52.078;21.014;2023-04-26T03:09:08;165188.41;;;5.48;100.00
45255;BME280;30989;52.078;21.014;2023-04-26T03:11:33;165183.06;;;5.46;100.00
45255;BME280;30989;52.078;21.014;2023-04-26T03:13:59;165185.72;;;5.47;100.00
45255;BME280;30989;52.078;21.014;2023-04-26T03:16:26;165168.38;;;5.41;100.00
45255;BME280;30989;52.078;21.014;2023-04-26T03:18:52;165148.34;;;5.33;100.00
45255;BME280;30989;52.078;21.014;2023-04-26T03:21:19;165132.34;;;5.27;100.00
45255;BME280;30989;52.078;21.014;2023-04-26T03:23:45;165105.59;;;5.17;100.00
45255;BME280;30989;52.078;21.014;2023-04-26T03:26:12;165089.59;;;5.11;100.00
45255;BME280;30989;52.078;21.014;2023-04-26T03:28:37;165078.91;;;5.07;100.00
45255;BME280;30989;52.078;21.014;2023-04-26T03:31:03;165076.25;;;5.06;100.00
45255;BME280;30989;52.078;21.014;2023-04-26T03:33:30;165065.56;;;5.02;100.00
45255;BME280;30989;52.078;21.014;2023-04-26T03:35:56;165049.56;;;4.96;100.00
45255;BME280;30989;52.078;21.014;2023-04-26T03:38:21;165036.22;;;4.91;100.00
45255;BME280;30989;52.078;21.014;2023-04-26T03:40:48;165006.84;;;4.79;100.00
45255;BME280;30989;52.078;21.014;2023-04-26T03:43:13;165009.53;;;4.80;100.00
45255;BME280;30989;52.078;21.014;2023-04-26T03:45:39;164978.84;;;4.69;100.00
45255;BME280;30989;52.078;21.014;2023-04-26T03:48:05;164985.50;;;4.71;100.00
45255;BME280;30989;52.078;21.014;2023-04-26T03:50:31;164978.84;;;4.69;100.00
45255;BME280;30989;52.078;21.014;2023-04-26T03:52:56;164964.16;;;4.63;100.00
45255;BME280;30989;52.078;21.014;2023-04-26T03:55:22;164956.16;;;4.60;100.00
45255;BME280;30989;52.078;21.014;2023-04-26T03:57:49;164942.81;;;4.55;100.00
45255;BME280;30989;52.078;21.014;2023-04-26T04:00:15;164933.47;;;4.51;100.00
45255;BME280;30989;52.078;21.014;2023-04-26T04:02:41;164928.16;;;4.49;100.00
45255;BME280;30989;52.078;21.014;2023-04-26T04:05:07;164921.47;;;4.47;100.00
45255;BME280;30989;52.078;21.014;2023-04-26T04:07:34;164912.13;;;4.43;100.00
45255;BME280;30989;52.078;21.014;2023-04-26T04:10:00;164902.81;;;4.40;100.00
45255;BME280;30989;52.078;21.014;2023-04-26T04:12:26;164892.13;;;4.36;100.00
45255;BME280;30989;52.078;21.014;2023-04-26T04:14:51;164881.47;;;4.32;100.00
45255;BME280;30989;52.078;21.014;2023-04-26T04:17:18;164881.47;;;4.32;100.00
45255;BME280;30989;52.078;21.014;2023-04-26T04:19:43;164885.47;;;4.33;100.00
45255;BME280;30989;52.078;21.014;2023-04-26T04:22:09;164878.78;;;4.31;100.00
45255;BME280;30989;52.078;21.014;2023-04-26T04:24:35;164877.47;;;4.30;100.00
45255;BME280;30989;52.078;21.014;2023-04-26T04:27:02;164873.47;;;4.29;100.00
45255;BME280;30989;52.078;21.014;2023-04-26T04:29:28;164884.13;;;4.33;100.00
45255;BME280;30989;52.078;21.014;2023-04-26T04:31:54;164886.78;;;4.34;100.00
45255;BME280;30989;52.078;21.014;2023-04-26T04:34:20;164881.47;;;4.32;100.00
45255;BME280;30989;52.078;21.014;2023-04-26T04:36:47;164876.13;;;4.30;100.00
45255;BME280;30989;52.078;21.014;2023-04-26T04:39:13;164886.78;;;4.34;100.00
45255;BME280;30989;52.078;21.014;2023-04-26T04:41:41;164881.47;;;4.32;100.00
45255;BME280;30989;52.078;21.014;2023-04-26T04:44:14;164881.47;;;4.32;100.00
45255;BME280;30989;52.078;21.014;2023-04-26T04:46:44;164880.13;;;4.31;100.00
45255;BME280;30989;52.078;21.014;2023-04-26T04:49:10;164873.47;;;4.29;100.00
45255;BME280;30989;52.078;21.014;2023-04-26T04:51:37;164873.47;;;4.29;100.00
45255;BME280;30989;52.078;21.014;2023-04-26T04:54:13;164889.47;;;4.35;100.00
45255;BME280;30989;52.078;21.014;2023-04-26T04:56:39;164905.47;;;4.41;100.00
45255;BME280;30989;52.078;21.014;2023-04-26T04:59:10;164912.13;;;4.43;100.00
45255;BME280;30989;52.078;21.014;2023-04-26T05:01:36;164910.81;;;4.43;100.00
45255;BME280;30989;52.078;21.014;2023-04-26T05:04:06;164904.13;;;4.40;100.00
45255;BME280;30989;52.078;21.014;2023-04-26T05:06:32;164906.81;;;4.41;100.00
45255;BME280;30989;52.078;21.014;2023-04-26T05:08:58;164905.47;;;4.41;100.00
45255;BME280;30989;52.078;21.014;2023-04-26T05:11:23;164913.47;;;4.44;100.00
45255;BME280;30989;52.078;21.014;2023-04-26T05:13:49;164913.47;;;4.44;100.00
45255;BME280;30989;52.078;21.014;2023-04-26T05:16:15;164918.81;;;4.46;100.00
45255;BME280;30989;52.078;21.014;2023-04-26T05:18:41;164914.81;;;4.44;100.00
45255;BME280;30989;52.078;21.014;2023-04-26T05:21:08;164928.16;;;4.49;100.00
45255;BME280;30989;52.078;21.014;2023-04-26T05:23:34;164925.47;;;4.48;100.00
45255;BME280;30989;52.078;21.014;2023-04-26T05:26:02;164934.81;;;4.52;100.00
45255;BME280;30989;52.078;21.014;2023-04-26T05:28:51;164940.16;;;4.54;100.00
45255;BME280;30989;52.078;21.014;2023-04-26T05:31:22;164953.50;;;4.59;100.00
45255;BME280;30989;52.078;21.014;2023-04-26T05:34:09;164960.16;;;4.62;100.00
45255;BME280;30989;52.078;21.014;2023-04-26T05:36:37;164972.16;;;4.66;100.00
45255;BME280;30989;52.078;21.014;2023-04-26T05:39:02;164985.50;;;4.71;100.00
45255;BME280;30989;52.078;21.014;2023-04-26T05:41:30;164996.19;;;4.75;100.00
45255;BME280;30989;52.078;21.014;2023-04-26T05:43:56;164996.19;;;4.75;100.00
45255;BME280;30989;52.078;21.014;2023-04-26T05:46:21;165012.19;;;4.81;100.00
45255;BME280;30989;52.078;21.014;2023-04-26T05:48:47;165021.53;;;4.85;100.00
45255;BME280;30989;52.078;21.014;2023-04-26T05:51:13;165046.88;;;4.95;100.00
45255;BME280;30989;52.078;21.014;2023-04-26T05:53:39;165053.56;;;4.97;100.00
45255;BME280;30989;52.078;21.014;2023-04-26T05:56:04;165078.91;;;5.07;100.00
45255;BME280;30989;52.078;21.014;2023-04-26T05:58:32;165080.25;;;5.07;100.00
45255;BME280;30989;52.078;21.014;2023-04-26T06:00:58;165112.28;;;5.19;100.00
45255;BME280;30989;52.078;21.014;2023-04-26T06:03:24;165117.66;;;5.22;100.00
45255;BME280;30989;52.078;21.014;2023-04-26T06:05:49;165133.69;;;5.28;100.00
45255;BME280;30989;52.078;21.014;2023-04-26T06:08:14;165135.00;;;5.28;100.00
45255;BME280;30989;52.078;21.014;2023-04-26T06:10:40;165153.69;;;5.35;100.00
45255;BME280;30989;52.078;21.014;2023-04-26T06:13:06;165184.41;;;5.47;100.00
45255;BME280;30989;52.078;21.014;2023-04-26T06:15:34;165207.09;;;5.56;100.00
45255;BME280;30989;52.078;21.014;2023-04-26T06:18:00;165235.13;;;5.66;100.00
45255;BME280;30989;52.078;21.014;2023-04-26T06:20:25;165251.16;;;5.72;100.00
45255;BME280;30989;52.078;21.014;2023-04-26T06:22:51;165297.94;;;5.90;100.00
45255;BME280;30989;52.078;21.014;2023-04-26T06:25:17;165327.31;;;6.01;100.00
45255;BME280;30989;52.078;21.014;2023-04-26T06:27:43;165366.03;;;6.16;100.00
45255;BME280;30989;52.078;21.014;2023-04-26T06:30:09;165382.06;;;6.22;100.00
45255;BME280;30989;52.078;21.014;2023-04-26T06:32:39;165406.09;;;6.31;100.00
45255;BME280;30989;52.078;21.014;2023-04-26T06:35:05;165424.78;;;6.38;100.00
45255;BME280;30989;52.078;21.014;2023-04-26T06:37:31;165434.16;;;6.42;100.00
45255;BME280;30989;52.078;21.014;2023-04-26T06:39:57;165454.19;;;6.50;100.00
45255;BME280;30989;52.078;21.014;2023-04-26T06:42:23;165470.22;;;6.56;100.00
45255;BME280;30989;52.078;21.014;2023-04-26T06:45:09;165486.25;;;6.62;100.00
45255;BME280;30989;52.078;21.014;2023-04-26T06:47:35;165500.94;;;6.67;99.97
45255;BME280;30989;52.078;21.014;2023-04-26T06:50:01;165504.94;;;6.69;100.00
45255;BME280;30989;52.078;21.014;2023-04-26T06:52:26;165518.31;;;6.74;100.00
45255;BME280;30989;52.078;21.014;2023-04-26T06:54:53;165538.34;;;6.82;100.00
45255;BME280;30989;52.078;21.014;2023-04-26T06:57:19;165551.69;;;6.87;100.00
45255;BME280;30989;52.078;21.014;2023-04-26T06:59:45;165554.38;;;6.88;99.63
45255;BME280;30989;52.078;21.014;2023-04-26T07:02:11;165575.75;;;6.96;95.64
45255;BME280;30989;52.078;21.014;2023-04-26T07:04:36;165583.78;;;6.99;95.70
45255;BME280;30989;52.078;21.014;2023-04-26T07:07:01;165583.78;;;6.99;94.58
45255;BME280;30989;52.078;21.014;2023-04-26T07:09:27;165594.47;;;7.03;96.67
45255;BME280;30989;52.078;21.014;2023-04-26T07:11:52;165589.13;;;7.01;93.20
45255;BME280;30989;52.078;21.014;2023-04-26T07:14:18;165625.19;;;7.15;95.16
45255;BME280;30989;52.078;21.014;2023-04-26T07:16:43;165639.91;;;7.20;94.11
45255;BME280;30989;52.078;21.014;2023-04-26T07:19:09;165663.94;;;7.29;94.53
45255;BME280;30989;52.078;21.014;2023-04-26T07:21:35;165680.00;;;7.35;90.37
45255;BME280;30989;52.078;21.014;2023-04-26T07:24:01;165696.03;;;7.41;94.09
45255;BME280;30989;52.078;21.014;2023-04-26T07:26:26;165734.78;;;7.56;93.89
45255;BME280;30989;52.078;21.014;2023-04-26T07:28:52;165764.19;;;7.67;90.69
45255;BME280;30989;52.078;21.014;2023-04-26T07:31:18;165765.53;;;7.68;90.82
45255;BME280;30989;52.078;21.014;2023-04-26T07:33:44;165777.56;;;7.72;90.93
45255;BME280;30989;52.078;21.014;2023-04-26T07:36:09;165786.94;;;7.76;92.29
45255;BME280;30989;52.078;21.014;2023-04-26T07:38:35;165811.00;;;7.85;89.69
45255;BME280;30989;52.078;21.014;2023-04-26T07:41:01;165840.41;;;7.96;87.16
45255;BME280;30989;52.078;21.014;2023-04-26T07:43:26;165873.84;;;8.09;89.38
45255;BME280;30989;52.078;21.014;2023-04-26T07:45:52;165909.94;;;8.23;88.97
45255;BME280;30989;52.078;21.014;2023-04-26T07:48:18;165946.09;;;8.36;88.80
45255;BME280;30989;52.078;21.014;2023-04-26T07:50:43;165976.88;;;8.48;85.84
45255;BME280;30989;52.078;21.014;2023-04-26T07:53:09;165952.78;;;8.39;86.01
45255;BME280;30989;52.078;21.014;2023-04-26T07:55:34;165950.09;;;8.38;86.83
45255;BME280;30989;52.078;21.014;2023-04-26T07:58:01;165968.84;;;8.45;84.21
45255;BME280;30989;52.078;21.014;2023-04-26T08:00:27;165999.59;;;8.57;84.79
45255;BME280;30989;52.078;21.014;2023-04-26T08:02:53;166023.69;;;8.66;81.72
45255;BME280;30989;52.078;21.014;2023-04-26T08:05:18;166038.41;;;8.71;82.73
45255;BME280;30989;52.078;21.014;2023-04-26T08:07:44;166026.34;;;8.67;81.03
45255;BME280;30989;52.078;21.014;2023-04-26T08:10:09;166007.63;;;8.60;83.32
45255;BME280;30989;52.078;21.014;2023-04-26T08:12:36;166033.03;;;8.69;82.74
45255;BME280;30989;52.078;21.014;2023-04-26T08:15:03;166033.03;;;8.69;81.12
45255;BME280;30989;52.078;21.014;2023-04-26T08:17:30;166075.84;;;8.86;80.29
45255;BME280;30989;52.078;21.014;2023-04-26T08:19:56;166082.53;;;8.88;79.98
45255;BME280;30989;52.078;21.014;2023-04-26T08:22:22;166058.47;;;8.79;76.67
45255;BME280;30989;52.078;21.014;2023-04-26T08:24:49;166011.63;;;8.61;76.33
45255;BME280;30989;52.078;21.014;2023-04-26T08:27:16;165995.59;;;8.55;76.75
45255;BME280;30989;52.078;21.014;2023-04-26T08:29:42;166010.31;;;8.61;78.18
45255;BME280;30989;52.078;21.014;2023-04-26T08:32:07;166051.78;;;8.77;81.37
45255;BME280;30989;52.078;21.014;2023-04-26T08:34:33;166055.78;;;8.78;77.90
45255;BME280;30989;52.078;21.014;2023-04-26T08:36:58;166043.75;;;8.73;75.43
45255;BME280;30989;52.078;21.014;2023-04-26T08:39:25;166003.59;;;8.58;74.08
45255;BME280;30989;52.078;21.014;2023-04-26T08:41:53;165974.19;;;8.47;76.66
45255;BME280;30989;52.078;21.014;2023-04-26T08:44:23;165936.75;;;8.33;77.74
45255;BME280;30989;52.078;21.014;2023-04-26T08:49:39;165869.81;;;8.07;79.96
45255;BME280;30989;52.078;21.014;2023-04-26T08:52:15;165869.81;;;8.07;78.76
45255;BME280;30989;52.078;21.014;2023-04-26T08:54:48;165879.19;;;8.11;77.81
45255;BME280;30989;52.078;21.014;2023-04-26T08:57:14;165885.88;;;8.14;77.39
45255;BME280;30989;52.078;21.014;2023-04-26T08:59:41;165885.88;;;8.14;73.58
45255;BME280;30989;52.078;21.014;2023-04-26T09:02:09;165864.47;;;8.05;75.12
45255;BME280;30989;52.078;21.014;2023-04-26T09:04:35;165891.22;;;8.16;74.52
45255;BME280;30989;52.078;21.014;2023-04-26T09:07:03;165963.47;;;8.43;72.83
45255;BME280;30989;52.078;21.014;2023-04-26T09:09:34;166030.38;;;8.68;70.03
45255;BME280;30989;52.078;21.014;2023-04-26T09:12:04;166049.09;;;8.76;70.80
45255;BME280;30989;52.078;21.014;2023-04-26T09:14:29;166110.63;;;8.99;67.81
45255;BME280;30989;52.078;21.014;2023-04-26T09:16:55;166156.13;;;9.16;66.56
45255;BME280;30989;52.078;21.014;2023-04-26T09:19:53;166220.38;;;9.41;69.19
45255;BME280;30989;52.078;21.014;2023-04-26T09:22:35;166212.34;;;9.37;68.10
45255;BME280;30989;52.078;21.014;2023-04-26T09:25:02;166178.88;;;9.25;70.61
45255;BME280;30989;52.078;21.014;2023-04-26T09:27:37;166145.44;;;9.12;68.01
45255;BME280;30989;52.078;21.014;2023-04-26T09:35:35;166027.69;;;8.67;66.21
45255;BME280;30989;52.078;21.014;2023-04-26T09:38:06;166026.34;;;8.67;69.25
45255;BME280;30989;52.078;21.014;2023-04-26T09:40:42;166007.63;;;8.60;70.23
45255;BME280;30989;52.078;21.014;2023-04-26T09:43:19;165974.19;;;8.47;69.99
45255;BME280;30989;52.078;21.014;2023-04-26T09:45:49;165919.31;;;8.26;70.52
45255;BME280;30989;52.078;21.014;2023-04-26T09:48:32;165892.56;;;8.16;68.57
45255;BME280;30989;52.078;21.014;2023-04-26T09:51:09;165889.88;;;8.15;68.74
45255;BME280;30989;52.078;21.014;2023-04-26T09:53:48;165939.41;;;8.34;67.73
45255;BME280;30989;52.078;21.014;2023-04-26T10:01:09;166216.34;;;9.39;62.80
45255;BME280;30989;52.078;21.014;2023-04-26T10:03:35;166201.63;;;9.33;60.63
45255;BME280;30989;52.078;21.014;2023-04-26T10:06:01;166192.25;;;9.30;60.55
45255;BME280;30989;52.078;21.014;2023-04-26T10:08:26;166184.22;;;9.27;64.55
45255;BME280;30989;52.078;21.014;2023-04-26T10:10:53;166177.53;;;9.24;62.63
45255;BME280;30989;52.078;21.014;2023-04-26T10:13:19;166114.66;;;9.00;58.87
45255;BME280;30989;52.078;21.014;2023-04-26T10:15:44;166039.72;;;8.72;57.32
45255;BME280;30989;52.078;21.014;2023-04-26T10:18:11;165983.53;;;8.51;58.03
45255;BME280;30989;52.078;21.014;2023-04-26T10:20:40;165951.44;;;8.38;58.97
45255;BME280;30989;52.078;21.014;2023-04-26T10:23:17;165942.09;;;8.35;60.39
45255;BME280;30989;52.078;21.014;2023-04-26T10:25:45;165998.25;;;8.56;60.91
45255;BME280;30989;52.078;21.014;2023-04-26T10:28:10;166126.69;;;9.05;63.40
45255;BME280;30989;52.078;21.014;2023-04-26T10:30:58;166316.72;;;9.77;57.18
45255;BME280;30989;52.078;21.014;2023-04-26T10:33:24;166401.06;;;10.09;53.70
45255;BME280;30989;52.078;21.014;2023-04-26T10:36:00;166395.72;;;10.07;53.27
45255;BME280;30989;52.078;21.014;2023-04-26T10:38:26;166354.22;;;9.91;54.29
45255;BME280;30989;52.078;21.014;2023-04-26T10:40:51;166252.47;;;9.53;54.52
45255;BME280;30989;52.078;21.014;2023-04-26T10:45:44;166124.00;;;9.04;54.98
45255;BME280;30989;52.078;21.014;2023-04-26T10:48:17;166099.94;;;8.95;55.60
45255;BME280;30989;52.078;21.014;2023-04-26T10:59:09;166497.59;;;10.46;57.67
45255;BME280;30989;52.078;21.014;2023-04-26T11:01:34;166515.00;;;10.52;52.00
45255;BME280;30989;52.078;21.014;2023-04-26T11:04:08;166448.00;;;10.27;52.14
45255;BME280;30989;52.078;21.014;2023-04-26T11:06:53;166359.56;;;9.93;52.59
45255;BME280;30989;52.078;21.014;2023-04-26T11:09:47;166237.75;;;9.47;54.89
45255;BME280;30989;52.078;21.014;2023-04-26T11:12:13;166145.44;;;9.12;55.96
45255;BME280;30989;52.078;21.014;2023-04-26T11:14:44;166107.97;;;8.98;57.18
45255;BME280;30989;52.078;21.014;2023-04-26T11:17:11;166118.66;;;9.02;56.22
45255;BME280;30989;52.078;21.014;2023-04-26T11:19:37;166166.84;;;9.20;56.88
45255;BME280;30989;52.078;21.014;2023-04-26T11:22:06;166253.81;;;9.53;54.35
45255;BME280;30989;52.078;21.014;2023-04-26T11:24:33;166528.41;;;10.57;52.68
45255;BME280;30989;52.078;21.014;2023-04-26T11:27:10;166766.88;;;11.48;50.78
45255;BME280;30989;52.078;21.014;2023-04-26T11:29:36;166954.56;;;12.19;53.01
45255;BME280;30989;52.078;21.014;2023-04-26T11:32:03;167091.34;;;12.71;52.47
45255;BME280;30989;52.078;21.014;2023-04-26T11:34:32;167043.06;;;12.52;48.01
45255;BME280;30989;52.078;21.014;2023-04-26T11:36:58;166879.50;;;11.90;49.46
45255;BME280;30989;52.078;21.014;2023-04-26T11:39:24;166713.28;;;11.27;48.62
45255;BME280;30989;52.078;21.014;2023-04-26T11:41:49;166583.31;;;10.78;45.31
45255;BME280;30989;52.078;21.014;2023-04-26T11:44:19;166480.13;;;10.39;49.11
45255;BME280;30989;52.078;21.014;2023-04-26T11:46:47;166524.38;;;10.56;50.59
45255;BME280;30989;52.078;21.014;2023-04-26T11:49:13;166811.09;;;11.65;49.96
45255;BME280;30989;52.078;21.014;2023-04-26T11:51:40;166951.91;;;12.18;46.08
45255;BME280;30989;52.078;21.014;2023-04-26T11:54:06;166864.75;;;11.85;45.58
45255;BME280;30989;52.078;21.014;2023-04-26T11:56:31;166726.66;;;11.33;44.97
45255;BME280;30989;52.078;21.014;2023-04-26T11:58:57;166599.38;;;10.84;47.12
45255;BME280;30989;52.078;21.014;2023-04-26T12:01:25;166482.88;;;10.40;47.83
45255;BME280;30989;52.078;21.014;2023-04-26T12:03:58;166399.75;;;10.09;49.91
45255;BME280;30989;52.078;21.014;2023-04-26T12:06:34;166370.28;;;9.97;50.50
45255;BME280;30989;52.078;21.014;2023-04-26T12:09:05;166324.78;;;9.80;50.59
45255;BME280;30989;52.078;21.014;2023-04-26T12:11:33;166268.53;;;9.59;50.41
45255;BME280;30989;52.078;21.014;2023-04-26T12:14:00;166223.03;;;9.42;51.59
45255;BME280;30989;52.078;21.014;2023-04-26T12:16:25;166174.88;;;9.23;51.76
45255;BME280;30989;52.078;21.014;2023-04-26T12:18:51;166111.97;;;8.99;53.76
45255;BME280;30989;52.078;21.014;2023-04-26T12:21:18;166059.78;;;8.80;54.31
45255;BME280;30989;52.078;21.014;2023-04-26T12:23:43;166051.78;;;8.77;55.14
45255;BME280;30989;52.078;21.014;2023-04-26T12:26:12;166039.72;;;8.72;54.57
45255;BME280;30989;52.078;21.014;2023-04-26T12:28:38;166061.13;;;8.80;54.86
45255;BME280;30989;52.078;21.014;2023-04-26T12:31:04;166105.28;;;8.97;55.38
45255;BME280;30989;52.078;21.014;2023-04-26T12:33:30;166118.66;;;9.02;53.69
45255;BME280;30989;52.078;21.014;2023-04-26T12:36:04;166110.63;;;8.99;54.94
45255;BME280;30989;52.078;21.014;2023-04-26T12:38:29;166098.59;;;8.94;55.56
45255;BME280;30989;52.078;21.014;2023-04-26T12:40:56;166081.19;;;8.88;55.07
45255;BME280;30989;52.078;21.014;2023-04-26T12:43:22;166049.09;;;8.76;54.40
45255;BME280;30989;52.078;21.014;2023-04-26T12:45:50;166058.47;;;8.79;53.93
45255;BME280;30989;52.078;21.014;2023-04-26T12:48:16;166085.22;;;8.89;52.86
45255;BME280;30989;52.078;21.014;2023-04-26T12:50:41;166116.00;;;9.01;54.02
45255;BME280;30989;52.078;21.014;2023-04-26T12:53:06;166320.75;;;9.79;54.08
45255;BME280;30989;52.078;21.014;2023-04-26T12:55:32;166472.09;;;10.36;51.15
45255;BME280;30989;52.078;21.014;2023-04-26T12:57:57;166477.44;;;10.38;51.31
45255;BME280;30989;52.078;21.014;2023-04-26T13:00:23;166457.38;;;10.30;53.00
45255;BME280;30989;52.078;21.014;2023-04-26T13:02:49;166449.34;;;10.27;52.97
45255;BME280;30989;52.078;21.014;2023-04-26T13:05:15;166429.25;;;10.20;51.88
45255;BME280;30989;52.078;21.014;2023-04-26T13:07:41;166359.56;;;9.93;51.66